sensor_id;sensor_type;location;lat;lon;timestamp;temperature;humidity
13440;DHT22;6792;57.698;11.946;2022-07-12T00:02:15;23.30;42.10
13440;DHT22;6792;57.698;11.946;2022-07-12T00:04:44;23.30;41.60
13440;DHT22;6792;57.698;11.946;2022-07-12T00:07:13;23.30;41.70
13440;DHT22;6792;57.698;11.946;2022-07-12T00:09:41;23.20;41.70
13440;DHT22;6792;57.698;11.946;2022-07-12T00:12:11;23.20;41.70
13440;DHT22;6792;57.698;11.946;2022-07-12T00:14:40;23.20;42.40
13440;DHT22;6792;57.698;11.946;2022-07-12T00:17:09;23.20;41.80
13440;DHT22;6792;57.698;11.946;2022-07-12T00:19:38;23.10;41.90
13440;DHT22;6792;57.698;11.946;2022-07-12T00:22:07;23.10;41.90
13440;DHT22;6792;57.698;11.946;2022-07-12T00:24:36;23.10;42.10
13440;DHT22;6792;57.698;11.946;2022-07-12T00:27:06;23.00;42.10
13440;DHT22;6792;57.698;11.946;2022-07-12T00:29:35;23.00;42.20
13440;DHT22;6792;57.698;11.946;2022-07-12T00:32:05;22.90;41.60
13440;DHT22;6792;57.698;11.946;2022-07-12T00:34:35;22.90;42.40
13440;DHT22;6792;57.698;11.946;2022-07-12T00:37:04;22.90;42.40
13440;DHT22;6792;57.698;11.946;2022-07-12T00:39:33;22.90;42.40
13440;DHT22;6792;57.698;11.946;2022-07-12T00:42:02;22.90;42.40
13440;DHT22;6792;57.698;11.946;2022-07-12T00:44:31;22.90;42.50
13440;DHT22;6792;57.698;11.946;2022-07-12T00:47:02;22.80;42.50
13440;DHT22;6792;57.698;11.946;2022-07-12T00:49:32;22.80;42.50
13440;DHT22;6792;57.698;11.946;2022-07-12T00:52:02;22.80;42.60
13440;DHT22;6792;57.698;11.946;2022-07-12T00:54:31;22.70;42.60
13440;DHT22;6792;57.698;11.946;2022-07-12T00:57:00;22.70;42.70
13440;DHT22;6792;57.698;11.946;2022-07-12T00:59:29;22.70;42.20
13440;DHT22;6792;57.698;11.946;2022-07-12T01:01:58;22.70;43.00
13440;DHT22;6792;57.698;11.946;2022-07-12T01:04:27;22.70;43.00
13440;DHT22;6792;57.698;11.946;2022-07-12T01:07:15;22.60;43.00
13440;DHT22;6792;57.698;11.946;2022-07-12T01:09:45;22.60;43.00
13440;DHT22;6792;57.698;11.946;2022-07-12T01:12:16;22.60;43.10
13440;DHT22;6792;57.698;11.946;2022-07-12T01:14:49;22.60;43.20
13440;DHT22;6792;57.698;11.946;2022-07-12T01:17:20;22.50;43.20
13440;DHT22;6792;57.698;11.946;2022-07-12T01:19:50;22.50;43.20
13440;DHT22;6792;57.698;11.946;2022-07-12T01:22:20;22.50;43.30
13440;DHT22;6792;57.698;11.946;2022-07-12T01:24:49;22.40;43.30
13440;DHT22;6792;57.698;11.946;2022-07-12T01:27:18;22.40;43.40
13440;DHT22;6792;57.698;11.946;2022-07-12T01:29:50;22.40;43.50
13440;DHT22;6792;57.698;11.946;2022-07-12T01:32:19;22.40;43.60
13440;DHT22;6792;57.698;11.946;2022-07-12T01:34:58;22.30;43.10
13440;DHT22;6792;57.698;11.946;2022-07-12T01:37:29;22.30;43.70
13440;DHT22;6792;57.698;11.946;2022-07-12T01:39:59;22.30;43.80
13440;DHT22;6792;57.698;11.946;2022-07-12T01:42:30;22.30;43.80
13440;DHT22;6792;57.698;11.946;2022-07-12T01:45:01;22.30;43.90
13440;DHT22;6792;57.698;11.946;2022-07-12T01:47:32;22.20;43.90
13440;DHT22;6792;57.698;11.946;2022-07-12T01:50:02;22.20;43.90
13440;DHT22;6792;57.698;11.946;2022-07-12T01:52:31;22.20;44.00
13440;DHT22;6792;57.698;11.946;2022-07-12T01:55:00;22.20;44.10
13440;DHT22;6792;57.698;11.946;2022-07-12T01:57:29;22.20;44.20
13440;DHT22;6792;57.698;11.946;2022-07-12T02:00:01;22.20;44.30
13440;DHT22;6792;57.698;11.946;2022-07-12T02:02:31;22.20;44.30
13440;DHT22;6792;57.698;11.946;2022-07-12T02:05:01;22.20;44.40
13440;DHT22;6792;57.698;11.946;2022-07-12T02:07:30;22.20;44.40
13440;DHT22;6792;57.698;11.946;2022-07-12T02:09:59;22.10;44.40
13440;DHT22;6792;57.698;11.946;2022-07-12T02:12:28;22.10;44.50
13440;DHT22;6792;57.698;11.946;2022-07-12T02:14:57;22.10;44.50
13440;DHT22;6792;57.698;11.946;2022-07-12T02:17:26;22.10;44.60
13440;DHT22;6792;57.698;11.946;2022-07-12T02:19:55;22.10;44.50
13440;DHT22;6792;57.698;11.946;2022-07-12T02:22:24;22.10;44.60
13440;DHT22;6792;57.698;11.946;2022-07-12T02:24:52;22.10;44.60
13440;DHT22;6792;57.698;11.946;2022-07-12T02:27:21;22.10;44.70
13440;DHT22;6792;57.698;11.946;2022-07-12T02:29:50;22.10;44.80
13440;DHT22;6792;57.698;11.946;2022-07-12T02:32:19;22.00;44.80
13440;DHT22;6792;57.698;11.946;2022-07-12T02:34:48;22.00;44.90
13440;DHT22;6792;57.698;11.946;2022-07-12T02:37:17;22.00;44.90
13440;DHT22;6792;57.698;11.946;2022-07-12T02:39:47;22.00;44.90
13440;DHT22;6792;57.698;11.946;2022-07-12T02:42:17;22.00;44.90
13440;DHT22;6792;57.698;11.946;2022-07-12T02:44:45;22.00;44.90
13440;DHT22;6792;57.698;11.946;2022-07-12T02:47:14;22.00;44.90
13440;DHT22;6792;57.698;11.946;2022-07-12T02:49:48;22.00;44.90
13440;DHT22;6792;57.698;11.946;2022-07-12T02:52:19;22.00;45.00
13440;DHT22;6792;57.698;11.946;2022-07-12T02:54:48;22.00;45.00
13440;DHT22;6792;57.698;11.946;2022-07-12T02:57:18;21.90;45.00
13440;DHT22;6792;57.698;11.946;2022-07-12T02:59:47;21.90;45.10
13440;DHT22;6792;57.698;11.946;2022-07-12T03:02:19;21.90;45.30
13440;DHT22;6792;57.698;11.946;2022-07-12T03:04:50;21.90;44.90
13440;DHT22;6792;57.698;11.946;2022-07-12T03:07:19;21.90;45.50
13440;DHT22;6792;57.698;11.946;2022-07-12T03:09:48;21.90;45.60
13440;DHT22;6792;57.698;11.946;2022-07-12T03:12:19;21.90;45.10
13440;DHT22;6792;57.698;11.946;2022-07-12T03:14:50;21.90;45.80
13440;DHT22;6792;57.698;11.946;2022-07-12T03:17:19;21.90;45.30
13440;DHT22;6792;57.698;11.946;2022-07-12T03:19:48;21.90;45.90
13440;DHT22;6792;57.698;11.946;2022-07-12T03:22:17;21.90;45.90
13440;DHT22;6792;57.698;11.946;2022-07-12T03:24:46;21.90;46.00
13440;DHT22;6792;57.698;11.946;2022-07-12T03:27:15;21.90;46.10
13440;DHT22;6792;57.698;11.946;2022-07-12T03:29:47;21.90;46.20
13440;DHT22;6792;57.698;11.946;2022-07-12T03:32:20;21.90;46.30
13440;DHT22;6792;57.698;11.946;2022-07-12T03:34:46;22.00;45.80
13440;DHT22;6792;57.698;11.946;2022-07-12T03:37:15;22.00;46.90
13440;DHT22;6792;57.698;11.946;2022-07-12T03:39:46;22.00;45.80
13440;DHT22;6792;57.698;11.946;2022-07-12T03:42:17;22.00;46.40
13440;DHT22;6792;57.698;11.946;2022-07-12T03:44:47;22.10;46.50
13440;DHT22;6792;57.698;11.946;2022-07-12T03:47:18;22.10;46.10
13440;DHT22;6792;57.698;11.946;2022-07-12T03:49:50;22.10;46.60
13440;DHT22;6792;57.698;11.946;2022-07-12T03:52:19;22.10;46.60
13440;DHT22;6792;57.698;11.946;2022-07-12T03:54:48;22.20;46.70
13440;DHT22;6792;57.698;11.946;2022-07-12T03:57:18;22.20;46.70
13440;DHT22;6792;57.698;11.946;2022-07-12T03:59:49;22.20;46.70
13440;DHT22;6792;57.698;11.946;2022-07-12T04:02:19;22.20;46.80
13440;DHT22;6792;57.698;11.946;2022-07-12T04:04:50;22.20;46.30
13440;DHT22;6792;57.698;11.946;2022-07-12T04:07:18;22.20;46.80
13440;DHT22;6792;57.698;11.946;2022-07-12T04:09:49;22.20;46.80
13440;DHT22;6792;57.698;11.946;2022-07-12T04:12:18;22.30;46.90
13440;DHT22;6792;57.698;11.946;2022-07-12T04:14:48;22.30;46.90
13440;DHT22;6792;57.698;11.946;2022-07-12T04:17:20;22.30;46.30
13440;DHT22;6792;57.698;11.946;2022-07-12T04:19:49;22.30;46.90
13440;DHT22;6792;57.698;11.946;2022-07-12T04:22:18;22.30;46.90
13440;DHT22;6792;57.698;11.946;2022-07-12T04:24:47;22.30;46.40
13440;DHT22;6792;57.698;11.946;2022-07-12T04:27:17;22.40;47.00
13440;DHT22;6792;57.698;11.946;2022-07-12T04:29:47;22.40;47.00
13440;DHT22;6792;57.698;11.946;2022-07-12T04:32:16;22.40;47.00
13440;DHT22;6792;57.698;11.946;2022-07-12T04:34:44;22.40;47.20
13440;DHT22;6792;57.698;11.946;2022-07-12T04:37:14;22.50;47.20
13440;DHT22;6792;57.698;11.946;2022-07-12T04:39:43;22.50;47.40
13440;DHT22;6792;57.698;11.946;2022-07-12T04:42:12;22.50;47.40
13440;DHT22;6792;57.698;11.946;2022-07-12T04:44:40;22.60;47.50
13440;DHT22;6792;57.698;11.946;2022-07-12T04:47:09;22.60;47.50
13440;DHT22;6792;57.698;11.946;2022-07-12T04:49:39;22.60;47.60
13440;DHT22;6792;57.698;11.946;2022-07-12T04:52:08;22.70;47.80
13440;DHT22;6792;57.698;11.946;2022-07-12T04:54:37;22.70;48.00
13440;DHT22;6792;57.698;11.946;2022-07-12T04:57:06;22.80;48.10
13440;DHT22;6792;57.698;11.946;2022-07-12T04:59:35;22.80;48.30
13440;DHT22;6792;57.698;11.946;2022-07-12T05:02:04;22.90;48.50
13440;DHT22;6792;57.698;11.946;2022-07-12T05:04:33;22.90;48.70
13440;DHT22;6792;57.698;11.946;2022-07-12T05:07:03;23.00;48.80
13440;DHT22;6792;57.698;11.946;2022-07-12T05:09:32;23.00;48.90
13440;DHT22;6792;57.698;11.946;2022-07-12T05:12:01;23.00;49.10
13440;DHT22;6792;57.698;11.946;2022-07-12T05:14:29;23.10;49.20
13440;DHT22;6792;57.698;11.946;2022-07-12T05:16:59;23.10;49.20
13440;DHT22;6792;57.698;11.946;2022-07-12T05:19:28;23.10;48.80
13440;DHT22;6792;57.698;11.946;2022-07-12T05:21:57;23.20;49.50
13440;DHT22;6792;57.698;11.946;2022-07-12T05:24:26;23.20;49.50
13440;DHT22;6792;57.698;11.946;2022-07-12T05:26:55;23.20;49.60
13440;DHT22;6792;57.698;11.946;2022-07-12T05:29:24;23.20;49.10
13440;DHT22;6792;57.698;11.946;2022-07-12T05:31:56;23.30;49.80
13440;DHT22;6792;57.698;11.946;2022-07-12T05:34:25;23.30;49.80
13440;DHT22;6792;57.698;11.946;2022-07-12T05:36:54;23.30;49.80
13440;DHT22;6792;57.698;11.946;2022-07-12T05:39:22;23.40;50.00
13440;DHT22;6792;57.698;11.946;2022-07-12T05:41:51;23.40;49.90
13440;DHT22;6792;57.698;11.946;2022-07-12T05:44:20;23.50;50.00
13440;DHT22;6792;57.698;11.946;2022-07-12T05:46:50;23.50;50.00
13440;DHT22;6792;57.698;11.946;2022-07-12T05:49:19;23.50;49.50
13440;DHT22;6792;57.698;11.946;2022-07-12T05:51:48;23.60;50.10
13440;DHT22;6792;57.698;11.946;2022-07-12T05:54:35;23.60;49.60
13440;DHT22;6792;57.698;11.946;2022-07-12T05:57:04;23.60;50.10
13440;DHT22;6792;57.698;11.946;2022-07-12T05:59:35;23.60;50.00
13440;DHT22;6792;57.698;11.946;2022-07-12T06:02:05;23.70;50.10
13440;DHT22;6792;57.698;11.946;2022-07-12T06:04:34;23.70;50.00
13440;DHT22;6792;57.698;11.946;2022-07-12T06:07:04;23.70;50.00
13440;DHT22;6792;57.698;11.946;2022-07-12T06:09:33;23.70;50.00
13440;DHT22;6792;57.698;11.946;2022-07-12T06:12:03;23.70;50.00
13440;DHT22;6792;57.698;11.946;2022-07-12T06:14:32;23.80;49.90
13440;DHT22;6792;57.698;11.946;2022-07-12T06:17:00;23.80;49.80
13440;DHT22;6792;57.698;11.946;2022-07-12T06:19:29;23.80;49.80
13440;DHT22;6792;57.698;11.946;2022-07-12T06:21:58;23.80;49.80
13440;DHT22;6792;57.698;11.946;2022-07-12T06:24:28;23.90;49.80
13440;DHT22;6792;57.698;11.946;2022-07-12T06:26:56;23.90;49.90
13440;DHT22;6792;57.698;11.946;2022-07-12T06:29:25;23.90;49.80
13440;DHT22;6792;57.698;11.946;2022-07-12T06:31:54;24.00;49.80
13440;DHT22;6792;57.698;11.946;2022-07-12T06:34:23;24.00;49.20
13440;DHT22;6792;57.698;11.946;2022-07-12T06:36:52;24.00;49.70
13440;DHT22;6792;57.698;11.946;2022-07-12T06:39:21;24.00;49.70
13440;DHT22;6792;57.698;11.946;2022-07-12T06:41:50;24.00;49.70
13440;DHT22;6792;57.698;11.946;2022-07-12T06:44:19;24.00;49.70
13440;DHT22;6792;57.698;11.946;2022-07-12T06:46:51;24.00;49.70
13440;DHT22;6792;57.698;11.946;2022-07-12T06:49:38;24.00;49.70
13440;DHT22;6792;57.698;11.946;2022-07-12T06:52:08;24.10;49.20
13440;DHT22;6792;57.698;11.946;2022-07-12T06:54:37;24.10;49.70
13440;DHT22;6792;57.698;11.946;2022-07-12T06:57:06;24.10;49.60
13440;DHT22;6792;57.698;11.946;2022-07-12T06:59:35;24.20;49.60
13440;DHT22;6792;57.698;11.946;2022-07-12T07:02:05;24.20;49.50
13440;DHT22;6792;57.698;11.946;2022-07-12T07:04:33;24.20;49.40
13440;DHT22;6792;57.698;11.946;2022-07-12T07:07:03;24.30;49.40
13440;DHT22;6792;57.698;11.946;2022-07-12T07:09:32;24.30;49.40
13440;DHT22;6792;57.698;11.946;2022-07-12T07:12:02;24.30;50.00
13440;DHT22;6792;57.698;11.946;2022-07-12T07:14:31;24.40;49.40
13440;DHT22;6792;57.698;11.946;2022-07-12T07:17:00;24.40;49.30
13440;DHT22;6792;57.698;11.946;2022-07-12T07:19:29;24.50;49.30
13440;DHT22;6792;57.698;11.946;2022-07-12T07:21:58;24.50;49.20
13440;DHT22;6792;57.698;11.946;2022-07-12T07:24:27;24.50;48.50
13440;DHT22;6792;57.698;11.946;2022-07-12T07:26:56;24.60;49.20
13440;DHT22;6792;57.698;11.946;2022-07-12T07:29:25;24.70;49.10
13440;DHT22;6792;57.698;11.946;2022-07-12T07:32:12;24.70;48.40
13440;DHT22;6792;57.698;11.946;2022-07-12T07:34:41;24.70;49.10
13440;DHT22;6792;57.698;11.946;2022-07-12T07:37:10;24.70;49.00
13440;DHT22;6792;57.698;11.946;2022-07-12T07:39:39;24.70;49.00
13440;DHT22;6792;57.698;11.946;2022-07-12T07:42:07;24.70;48.90
13440;DHT22;6792;57.698;11.946;2022-07-12T07:44:37;24.60;49.00
13440;DHT22;6792;57.698;11.946;2022-07-12T07:47:05;24.70;48.50
13440;DHT22;6792;57.698;11.946;2022-07-12T07:49:34;24.70;49.00
13440;DHT22;6792;57.698;11.946;2022-07-12T07:52:05;24.70;48.90
13440;DHT22;6792;57.698;11.946;2022-07-12T07:54:34;24.80;48.80
13440;DHT22;6792;57.698;11.946;2022-07-12T07:57:03;24.80;48.80
13440;DHT22;6792;57.698;11.946;2022-07-12T07:59:32;24.80;49.40
13440;DHT22;6792;57.698;11.946;2022-07-12T08:02:01;24.80;48.80
13440;DHT22;6792;57.698;11.946;2022-07-12T08:04:30;24.80;48.70
13440;DHT22;6792;57.698;11.946;2022-07-12T08:06:59;24.90;48.70
13440;DHT22;6792;57.698;11.946;2022-07-12T08:09:28;24.90;48.50
13440;DHT22;6792;57.698;11.946;2022-07-12T08:11:57;24.90;47.90
13440;DHT22;6792;57.698;11.946;2022-07-12T08:14:26;25.00;48.40
13440;DHT22;6792;57.698;11.946;2022-07-12T08:16:55;25.00;48.30
13440;DHT22;6792;57.698;11.946;2022-07-12T08:19:23;25.00;48.20
13440;DHT22;6792;57.698;11.946;2022-07-12T08:21:52;25.00;48.20
13440;DHT22;6792;57.698;11.946;2022-07-12T08:24:21;25.00;47.70
13440;DHT22;6792;57.698;11.946;2022-07-12T08:26:50;25.00;48.20
13440;DHT22;6792;57.698;11.946;2022-07-12T08:29:19;25.00;48.30
13440;DHT22;6792;57.698;11.946;2022-07-12T08:31:51;25.00;48.20
13440;DHT22;6792;57.698;11.946;2022-07-12T08:37:00;25.00;47.90
13440;DHT22;6792;57.698;11.946;2022-07-12T08:39:29;25.00;48.40
13440;DHT22;6792;57.698;11.946;2022-07-12T08:41:58;25.00;48.40
13440;DHT22;6792;57.698;11.946;2022-07-12T08:44:27;25.00;48.40
13440;DHT22;6792;57.698;11.946;2022-07-12T08:46:57;25.00;48.40
13440;DHT22;6792;57.698;11.946;2022-07-12T08:49:25;25.00;48.40
13440;DHT22;6792;57.698;11.946;2022-07-12T08:51:54;25.00;48.40
13440;DHT22;6792;57.698;11.946;2022-07-12T08:54:23;25.00;48.50
13440;DHT22;6792;57.698;11.946;2022-07-12T08:56:55;25.00;48.50
13440;DHT22;6792;57.698;11.946;2022-07-12T08:59:24;25.00;48.50
13440;DHT22;6792;57.698;11.946;2022-07-12T09:01:54;25.00;48.00
13440;DHT22;6792;57.698;11.946;2022-07-12T09:04:24;25.00;48.60
13440;DHT22;6792;57.698;11.946;2022-07-12T09:06:54;25.00;48.60
13440;DHT22;6792;57.698;11.946;2022-07-12T09:09:27;25.00;48.70
13440;DHT22;6792;57.698;11.946;2022-07-12T09:11:57;25.00;48.70
13440;DHT22;6792;57.698;11.946;2022-07-12T09:14:26;25.00;48.70
13440;DHT22;6792;57.698;11.946;2022-07-12T09:17:04;25.00;48.70
13440;DHT22;6792;57.698;11.946;2022-07-12T09:19:36;25.00;48.80
13440;DHT22;6792;57.698;11.946;2022-07-12T09:22:13;25.00;48.90
13440;DHT22;6792;57.698;11.946;2022-07-12T09:24:36;25.00;48.90
13440;DHT22;6792;57.698;11.946;2022-07-12T09:27:06;25.00;48.80
13440;DHT22;6792;57.698;11.946;2022-07-12T09:29:48;25.00;49.00
13440;DHT22;6792;57.698;11.946;2022-07-12T09:32:21;25.00;48.90
13440;DHT22;6792;57.698;11.946;2022-07-12T09:35:08;25.00;48.40
13440;DHT22;6792;57.698;11.946;2022-07-12T09:37:55;24.90;48.60
13440;DHT22;6792;57.698;11.946;2022-07-12T09:40:24;24.90;49.20
13440;DHT22;6792;57.698;11.946;2022-07-12T09:42:53;25.00;49.00
13440;DHT22;6792;57.698;11.946;2022-07-12T09:45:22;25.10;48.90
13440;DHT22;6792;57.698;11.946;2022-07-12T09:47:52;25.20;48.80
13440;DHT22;6792;57.698;11.946;2022-07-12T09:50:21;25.20;48.80
13440;DHT22;6792;57.698;11.946;2022-07-12T09:52:52;25.20;48.80
13440;DHT22;6792;57.698;11.946;2022-07-12T09:55:24;25.20;48.10
13440;DHT22;6792;57.698;11.946;2022-07-12T09:57:55;25.20;48.60
13440;DHT22;6792;57.698;11.946;2022-07-12T10:00:24;25.30;49.30
13440;DHT22;6792;57.698;11.946;2022-07-12T10:02:54;25.30;49.30
13440;DHT22;6792;57.698;11.946;2022-07-12T10:05:25;25.40;48.80
13440;DHT22;6792;57.698;11.946;2022-07-12T10:07:54;25.40;48.80
13440;DHT22;6792;57.698;11.946;2022-07-12T10:10:24;25.40;48.70
13440;DHT22;6792;57.698;11.946;2022-07-12T10:12:54;25.50;48.70
13440;DHT22;6792;57.698;11.946;2022-07-12T10:15:25;25.50;48.70
13440;DHT22;6792;57.698;11.946;2022-07-12T10:17:56;25.50;48.70
13440;DHT22;6792;57.698;11.946;2022-07-12T10:20:27;25.60;48.70
13440;DHT22;6792;57.698;11.946;2022-07-12T10:25:31;25.60;48.70
13440;DHT22;6792;57.698;11.946;2022-07-12T10:28:01;25.60;48.70
13440;DHT22;6792;57.698;11.946;2022-07-12T10:30:30;25.60;48.80
13440;DHT22;6792;57.698;11.946;2022-07-12T10:33:01;25.60;48.80
13440;DHT22;6792;57.698;11.946;2022-07-12T10:35:31;25.60;48.70
13440;DHT22;6792;57.698;11.946;2022-07-12T10:41:25;25.60;48.20
13440;DHT22;6792;57.698;11.946;2022-07-12T10:44:04;25.60;48.80
13440;DHT22;6792;57.698;11.946;2022-07-12T10:46:34;25.70;48.80
13440;DHT22;6792;57.698;11.946;2022-07-12T10:49:25;25.70;48.80
13440;DHT22;6792;57.698;11.946;2022-07-12T10:52:22;25.70;48.70
13440;DHT22;6792;57.698;11.946;2022-07-12T10:55:18;25.70;48.70
13440;DHT22;6792;57.698;11.946;2022-07-12T10:57:51;25.80;48.70
13440;DHT22;6792;57.698;11.946;2022-07-12T11:00:21;25.80;48.10
13440;DHT22;6792;57.698;11.946;2022-07-12T11:02:51;25.80;48.60
13440;DHT22;6792;57.698;11.946;2022-07-12T11:05:26;25.90;48.00
13440;DHT22;6792;57.698;11.946;2022-07-12T11:07:56;25.90;48.50
13440;DHT22;6792;57.698;11.946;2022-07-12T11:10:25;25.90;48.40
13440;DHT22;6792;57.698;11.946;2022-07-12T11:12:54;25.90;48.40
13440;DHT22;6792;57.698;11.946;2022-07-12T11:15:24;26.00;48.30
13440;DHT22;6792;57.698;11.946;2022-07-12T11:17:53;26.00;47.70
13440;DHT22;6792;57.698;11.946;2022-07-12T11:20:22;26.10;48.70
13440;DHT22;6792;57.698;11.946;2022-07-12T11:22:53;26.10;48.10
13440;DHT22;6792;57.698;11.946;2022-07-12T11:25:22;26.20;47.50
13440;DHT22;6792;57.698;11.946;2022-07-12T11:27:51;26.20;47.30
13440;DHT22;6792;57.698;11.946;2022-07-12T11:30:20;26.30;47.80
13440;DHT22;6792;57.698;11.946;2022-07-12T11:32:49;26.30;47.70
13440;DHT22;6792;57.698;11.946;2022-07-12T11:35:19;26.40;47.50
13440;DHT22;6792;57.698;11.946;2022-07-12T11:37:54;26.40;47.40
13440;DHT22;6792;57.698;11.946;2022-07-12T11:40:27;26.50;47.30
13440;DHT22;6792;57.698;11.946;2022-07-12T11:42:58;26.50;47.30
13440;DHT22;6792;57.698;11.946;2022-07-12T11:45:29;26.50;47.10
13440;DHT22;6792;57.698;11.946;2022-07-12T11:48:00;26.60;46.40
13440;DHT22;6792;57.698;11.946;2022-07-12T11:50:31;26.70;46.90
13440;DHT22;6792;57.698;11.946;2022-07-12T11:53:02;26.70;46.70
13440;DHT22;6792;57.698;11.946;2022-07-12T11:55:31;26.80;46.60
13440;DHT22;6792;57.698;11.946;2022-07-12T11:58:05;26.90;46.50
13440;DHT22;6792;57.698;11.946;2022-07-12T12:00:34;26.90;46.30
13440;DHT22;6792;57.698;11.946;2022-07-12T12:03:03;27.00;46.20
13440;DHT22;6792;57.698;11.946;2022-07-12T12:05:33;27.10;46.10
13440;DHT22;6792;57.698;11.946;2022-07-12T12:08:02;27.20;46.50
13440;DHT22;6792;57.698;11.946;2022-07-12T12:10:34;27.20;45.70
13440;DHT22;6792;57.698;11.946;2022-07-12T12:13:03;27.30;45.50
13440;DHT22;6792;57.698;11.946;2022-07-12T12:15:33;27.40;44.80
13440;DHT22;6792;57.698;11.946;2022-07-12T12:18:03;27.50;45.20
13440;DHT22;6792;57.698;11.946;2022-07-12T12:20:34;27.60;45.10
13440;DHT22;6792;57.698;11.946;2022-07-12T12:23:04;27.60;44.20
13440;DHT22;6792;57.698;11.946;2022-07-12T12:25:34;27.70;44.00
13440;DHT22;6792;57.698;11.946;2022-07-12T12:28:04;27.80;43.90
13440;DHT22;6792;57.698;11.946;2022-07-12T12:30:35;27.90;44.30
13440;DHT22;6792;57.698;11.946;2022-07-12T12:33:05;28.00;44.20
13440;DHT22;6792;57.698;11.946;2022-07-12T12:35:36;28.10;43.50
13440;DHT22;6792;57.698;11.946;2022-07-12T12:38:11;28.10;43.90
13440;DHT22;6792;57.698;11.946;2022-07-12T12:40:49;28.20;44.30
13440;DHT22;6792;57.698;11.946;2022-07-12T12:43:13;28.30;43.50
13440;DHT22;6792;57.698;11.946;2022-07-12T12:45:51;28.40;43.20
13440;DHT22;6792;57.698;11.946;2022-07-12T12:48:21;28.50;42.90
13440;DHT22;6792;57.698;11.946;2022-07-12T12:50:52;28.60;42.70
13440;DHT22;6792;57.698;11.946;2022-07-12T12:53:22;28.70;42.50
13440;DHT22;6792;57.698;11.946;2022-07-12T12:55:53;28.70;42.20
13440;DHT22;6792;57.698;11.946;2022-07-12T12:58:23;28.80;42.20
13440;DHT22;6792;57.698;11.946;2022-07-12T13:00:54;28.90;42.10
13440;DHT22;6792;57.698;11.946;2022-07-12T13:03:24;29.00;41.90
13440;DHT22;6792;57.698;11.946;2022-07-12T13:05:53;29.00;41.10
13440;DHT22;6792;57.698;11.946;2022-07-12T13:08:22;29.20;41.60
13440;DHT22;6792;57.698;11.946;2022-07-12T13:10:51;29.30;41.30
13440;DHT22;6792;57.698;11.946;2022-07-12T13:13:39;29.40;41.70
13440;DHT22;6792;57.698;11.946;2022-07-12T13:16:08;29.50;40.90
13440;DHT22;6792;57.698;11.946;2022-07-12T13:18:37;29.70;40.80
13440;DHT22;6792;57.698;11.946;2022-07-12T13:21:06;29.20;40.20
13440;DHT22;6792;57.698;11.946;2022-07-12T13:23:35;29.90;40.10
13440;DHT22;6792;57.698;11.946;2022-07-12T13:26:05;30.00;39.80
13440;DHT22;6792;57.698;11.946;2022-07-12T13:28:34;30.20;39.60
13440;DHT22;6792;57.698;11.946;2022-07-12T13:31:03;30.20;39.40
13440;DHT22;6792;57.698;11.946;2022-07-12T13:33:32;30.30;39.80
13440;DHT22;6792;57.698;11.946;2022-07-12T13:36:01;30.40;39.00
13440;DHT22;6792;57.698;11.946;2022-07-12T13:38:29;30.40;38.80
13440;DHT22;6792;57.698;11.946;2022-07-12T13:40:58;30.50;38.70
13440;DHT22;6792;57.698;11.946;2022-07-12T13:43:27;30.60;38.60
13440;DHT22;6792;57.698;11.946;2022-07-12T13:45:56;30.80;38.40
13440;DHT22;6792;57.698;11.946;2022-07-12T13:48:25;31.00;38.20
13440;DHT22;6792;57.698;11.946;2022-07-12T13:50:54;31.20;37.90
13440;DHT22;6792;57.698;11.946;2022-07-12T13:53:23;31.40;37.00
13440;DHT22;6792;57.698;11.946;2022-07-12T13:55:52;31.60;37.40
13440;DHT22;6792;57.698;11.946;2022-07-12T13:58:21;31.90;37.10
13440;DHT22;6792;57.698;11.946;2022-07-12T14:00:50;32.10;36.70
13440;DHT22;6792;57.698;11.946;2022-07-12T14:03:19;32.20;36.30
13440;DHT22;6792;57.698;11.946;2022-07-12T14:05:48;32.30;36.10
13440;DHT22;6792;57.698;11.946;2022-07-12T14:08:18;32.40;35.30
13440;DHT22;6792;57.698;11.946;2022-07-12T14:10:48;32.50;35.60
13440;DHT22;6792;57.698;11.946;2022-07-12T14:13:17;32.60;35.40
13440;DHT22;6792;57.698;11.946;2022-07-12T14:15:46;32.70;34.70
13440;DHT22;6792;57.698;11.946;2022-07-12T14:18:15;32.70;35.10
13440;DHT22;6792;57.698;11.946;2022-07-12T14:20:45;32.70;35.00
13440;DHT22;6792;57.698;11.946;2022-07-12T14:23:18;32.70;34.70
13440;DHT22;6792;57.698;11.946;2022-07-12T14:25:47;32.60;34.60
13440;DHT22;6792;57.698;11.946;2022-07-12T14:28:19;32.50;34.40
13440;DHT22;6792;57.698;11.946;2022-07-12T14:30:48;32.40;34.40
13440;DHT22;6792;57.698;11.946;2022-07-12T14:33:20;32.30;34.30
13440;DHT22;6792;57.698;11.946;2022-07-12T14:35:49;32.10;34.30
13440;DHT22;6792;57.698;11.946;2022-07-12T14:38:20;32.00;34.40
13440;DHT22;6792;57.698;11.946;2022-07-12T14:40:49;31.90;33.80
13440;DHT22;6792;57.698;11.946;2022-07-12T14:43:18;31.80;34.50
13440;DHT22;6792;57.698;11.946;2022-07-12T14:45:51;31.70;34.60
13440;DHT22;6792;57.698;11.946;2022-07-12T14:48:20;31.50;34.10
13440;DHT22;6792;57.698;11.946;2022-07-12T14:50:49;31.40;34.90
13440;DHT22;6792;57.698;11.946;2022-07-12T14:53:18;31.30;34.90
13440;DHT22;6792;57.698;11.946;2022-07-12T14:55:47;31.20;35.00
13440;DHT22;6792;57.698;11.946;2022-07-12T14:58:16;31.10;35.10
13440;DHT22;6792;57.698;11.946;2022-07-12T15:00:45;31.00;35.30
13440;DHT22;6792;57.698;11.946;2022-07-12T15:03:14;30.80;35.30
13440;DHT22;6792;57.698;11.946;2022-07-12T15:05:44;30.70;35.60
13440;DHT22;6792;57.698;11.946;2022-07-12T15:08:14;30.60;35.80
13440;DHT22;6792;57.698;11.946;2022-07-12T15:10:43;30.50;35.90
13440;DHT22;6792;57.698;11.946;2022-07-12T15:13:12;30.50;36.10
13440;DHT22;6792;57.698;11.946;2022-07-12T15:15:41;30.40;35.50
13440;DHT22;6792;57.698;11.946;2022-07-12T15:18:10;30.30;36.20
13440;DHT22;6792;57.698;11.946;2022-07-12T15:20:39;30.20;36.20
13440;DHT22;6792;57.698;11.946;2022-07-12T15:23:08;30.10;36.30
13440;DHT22;6792;57.698;11.946;2022-07-12T15:25:37;30.00;36.40
13440;DHT22;6792;57.698;11.946;2022-07-12T15:28:06;30.00;36.50
13440;DHT22;6792;57.698;11.946;2022-07-12T15:30:35;29.90;36.60
13440;DHT22;6792;57.698;11.946;2022-07-12T15:33:04;29.90;37.30
13440;DHT22;6792;57.698;11.946;2022-07-12T15:35:33;29.80;36.80
13440;DHT22;6792;57.698;11.946;2022-07-12T15:38:04;29.70;36.40
13440;DHT22;6792;57.698;11.946;2022-07-12T15:40:35;29.60;37.10
13440;DHT22;6792;57.698;11.946;2022-07-12T15:43:04;29.60;37.20
13440;DHT22;6792;57.698;11.946;2022-07-12T15:45:33;29.50;36.60
13440;DHT22;6792;57.698;11.946;2022-07-12T15:48:02;29.50;37.30
13440;DHT22;6792;57.698;11.946;2022-07-12T15:50:31;29.50;37.40
13440;DHT22;6792;57.698;11.946;2022-07-12T15:53:00;29.40;37.50
13440;DHT22;6792;57.698;11.946;2022-07-12T15:55:47;29.40;36.80
13440;DHT22;6792;57.698;11.946;2022-07-12T15:58:17;29.30;37.60